Lily Atlantic — HOWL — position and weather

sailwx.info

Track history (hours):
 
Tides and Currents Weather Stations Pressure Air Temp Water Temp Dewpoint Dewpoint Depression Visibility Wind Speed Wind Dir Waves Ship Positions

Lily Atlantic

Last reported at 2018-Apr-18 03:12 UTC. Time now 2018-Apr-23 04:00 UTC.
Position N 17°01' W 061°06'.

Length 229 m; draft 14.4 m.

Type: Cargo ship. MMSI: 354774000.

Date/timePositionNaut miles runAvg speedWind from/ knotsBaromVisibWave heightAir tempDewpointWater temp
2018-Apr-18 03:12N 17°01' W 061°06'210.6
2018-Apr-18 03:00N 16°60' W 061°08'510.5
2018-Apr-18 02:30N 16°57' W 061°13'510.5
2018-Apr-18 01:59N 16°54' W 061°17'510.2
2018-Apr-18 01:30N 16°51' W 061°22'510.2
2018-Apr-18 01:00N 16°49' W 061°26'510.2
2018-Apr-18 00:30N 16°46' W 061°31'510.6
2018-Apr-18 00:00N 16°43' W 061°35'510.4
2018-Apr-17 23:30N 16°40' W 061°40'510.7
2018-Apr-17 23:00N 16°38' W 061°45'510.5
2018-Apr-17 22:30N 16°36' W 061°50'510.8
2018-Apr-17 22:00N 16°34' W 061°55'510.8
2018-Apr-17 21:30N 16°32' W 062°01'510.9
2018-Apr-17 21:00N 16°29' W 062°06'611.3
2018-Apr-17 20:30N 16°28' W 062°11'611.5
2018-Apr-17 20:00N 16°27' W 062°17'611.6
2018-Apr-17 19:30N 16°25' W 062°23'612.1
2018-Apr-17 19:00N 16°24' W 062°29'612.0
2018-Apr-17 18:30N 16°22' W 062°35'  
2018-Apr-10 07:12N 16°20' W 062°42'313.5
2018-Apr-10 07:00N 16°20' W 062°39'713.6
2018-Apr-10 06:30N 16°23' W 062°33'713.8
2018-Apr-10 06:00N 16°26' W 062°26'714.1
2018-Apr-10 05:31N 16°28' W 062°20'714.5
2018-Apr-10 05:01N 16°31' W 062°13'714.2
2018-Apr-10 04:30N 16°33' W 062°05'713.8
2018-Apr-10 04:00N 16°34' W 061°58'713.3
2018-Apr-10 03:30N 16°35' W 061°52'713.2
2018-Apr-10 03:00N 16°37' W 061°45'613.2
2018-Apr-10 02:30N 16°39' W 061°39'713.3
2018-Apr-10 02:00N 16°42' W 061°32'713.3
2018-Apr-10 01:30N 16°44' W 061°25'713.5
2018-Apr-10 01:00N 16°46' W 061°19'713.6
2018-Apr-10 00:30N 16°48' W 061°12'713.8
2018-Apr-10 00:00N 16°50' W 061°05'713.6
2018-Apr-09 23:30N 16°52' W 060°58'713.5
2018-Apr-09 23:00N 16°54' W 060°52'  
Track history (hours):
 
Tides and Currents Weather Stations Pressure Air Temp Water Temp Dewpoint Dewpoint Depression Visibility Wind Speed Wind Dir Waves Ship Positions

Lily Atlantic

Last reported at 2018-Apr-18 03:12 UTC. Time now 2018-Apr-23 04:00 UTC.
Position N 17°01' W 061°06'.

Length 229 m; draft 14.4 m.

Type: Cargo ship. MMSI: 354774000.

Date/timePositionNaut miles runAvg speedWind from/ knotsBaromVisibWave heightAir tempDewpointWater temp
2018-Apr-18 03:12N 17°01' W 061°06'210.6
2018-Apr-18 03:00N 16°60' W 061°08'510.5
2018-Apr-18 02:30N 16°57' W 061°13'510.5
2018-Apr-18 01:59N 16°54' W 061°17'510.2
2018-Apr-18 01:30N 16°51' W 061°22'510.2
2018-Apr-18 01:00N 16°49' W 061°26'510.2
2018-Apr-18 00:30N 16°46' W 061°31'510.6
2018-Apr-18 00:00N 16°43' W 061°35'510.4
2018-Apr-17 23:30N 16°40' W 061°40'510.7
2018-Apr-17 23:00N 16°38' W 061°45'510.5
2018-Apr-17 22:30N 16°36' W 061°50'510.8
2018-Apr-17 22:00N 16°34' W 061°55'510.8
2018-Apr-17 21:30N 16°32' W 062°01'510.9
2018-Apr-17 21:00N 16°29' W 062°06'611.3
2018-Apr-17 20:30N 16°28' W 062°11'611.5
2018-Apr-17 20:00N 16°27' W 062°17'611.6
2018-Apr-17 19:30N 16°25' W 062°23'612.1
2018-Apr-17 19:00N 16°24' W 062°29'612.0
2018-Apr-17 18:30N 16°22' W 062°35'  
2018-Apr-10 07:12N 16°20' W 062°42'313.5
2018-Apr-10 07:00N 16°20' W 062°39'713.6
2018-Apr-10 06:30N 16°23' W 062°33'713.8
2018-Apr-10 06:00N 16°26' W 062°26'714.1
2018-Apr-10 05:31N 16°28' W 062°20'714.5
2018-Apr-10 05:01N 16°31' W 062°13'714.2
2018-Apr-10 04:30N 16°33' W 062°05'713.8
2018-Apr-10 04:00N 16°34' W 061°58'713.3
2018-Apr-10 03:30N 16°35' W 061°52'713.2
2018-Apr-10 03:00N 16°37' W 061°45'613.2
2018-Apr-10 02:30N 16°39' W 061°39'713.3
2018-Apr-10 02:00N 16°42' W 061°32'713.3
2018-Apr-10 01:30N 16°44' W 061°25'713.5
2018-Apr-10 01:00N 16°46' W 061°19'713.6
2018-Apr-10 00:30N 16°48' W 061°12'713.8
2018-Apr-10 00:00N 16°50' W 061°05'713.6
2018-Apr-09 23:30N 16°52' W 060°58'713.5
2018-Apr-09 23:00N 16°54' W 060°52'  

Dump ship's entire track history